createdAt,value
2022-12-11T00:01:24.050Z,37.65
2022-12-11T00:03:51.168Z,36.96
2022-12-11T00:06:20.324Z,36.31
2022-12-11T00:08:47.789Z,36.94
2022-12-11T00:11:16.502Z,36.22
2022-12-11T00:13:43.474Z,36.51
2022-12-11T00:16:10.276Z,36.34
2022-12-11T00:18:36.853Z,36.21
2022-12-11T00:21:07.820Z,36.24
2022-12-11T00:23:35.818Z,36.95
2022-12-11T00:26:07.121Z,35.72
2022-12-11T00:28:33.757Z,36.07
2022-12-11T00:31:04.123Z,36.43
2022-12-11T00:33:30.678Z,36.74
2022-12-11T00:35:57.145Z,36.10
2022-12-11T00:38:24.080Z,35.65
2022-12-11T00:40:50.749Z,36.33
2022-12-11T00:43:17.479Z,36.32
2022-12-11T00:45:45.854Z,35.40
2022-12-11T00:48:13.279Z,35.31
2022-12-11T00:50:40.655Z,35.33
2022-12-11T00:53:07.826Z,35.78
2022-12-11T00:55:39.829Z,35.85
2022-12-11T00:58:06.904Z,35.31
2022-12-11T01:00:33.524Z,35.75
2022-12-11T01:03:00.120Z,34.62
2022-12-11T01:05:26.994Z,35.14
2022-12-11T01:07:53.537Z,35.99
2022-12-11T01:10:26.127Z,35.85
2022-12-11T01:13:11.686Z,35.66
2022-12-11T01:15:44.233Z,35.41
2022-12-11T01:18:15.449Z,35.37
2022-12-11T01:20:43.145Z,35.43
2022-12-11T01:23:13.031Z,35.31
2022-12-11T01:25:39.995Z,34.62
2022-12-11T01:28:06.997Z,35.80
2022-12-11T01:30:34.145Z,34.44
2022-12-11T01:33:01.058Z,35.20
2022-12-11T01:35:28.425Z,34.38
2022-12-11T01:37:54.989Z,34.90
2022-12-11T01:40:22.168Z,33.66
2022-12-11T01:42:49.241Z,34.46
2022-12-11T01:45:15.788Z,33.55
2022-12-11T01:47:42.355Z,34.17
2022-12-11T01:50:08.957Z,35.02
2022-12-11T01:52:36.390Z,34.17
2022-12-11T01:55:03.952Z,34.72
2022-12-11T01:57:30.510Z,34.26
2022-12-11T01:59:57.205Z,34.25
2022-12-11T02:02:30.873Z,35.55
2022-12-11T02:04:58.274Z,34.25
2022-12-11T02:07:24.852Z,34.29
2022-12-11T02:09:51.347Z,33.06
2022-12-11T02:12:36.382Z,33.47
2022-12-11T02:15:32.527Z,34.11
2022-12-11T02:18:17.304Z,34.18
2022-12-11T02:21:02.664Z,34.56
2022-12-11T02:24:00.361Z,33.69
2022-12-11T02:26:35.831Z,33.89
2022-12-11T02:29:08.077Z,34.33
2022-12-11T02:31:40.698Z,33.89
2022-12-11T02:34:30.671Z,34.26
2022-12-11T02:37:03.827Z,34.31
2022-12-11T02:39:32.143Z,34.56
2022-12-11T02:41:59.042Z,34.01
2022-12-11T02:44:29.435Z,34.58
2022-12-11T02:46:56.229Z,34.23
2022-12-11T02:49:24.364Z,34.74
2022-12-11T02:51:52.521Z,33.90
2022-12-11T02:54:28.132Z,33.97
2022-12-11T02:57:04.796Z,34.35
2022-12-11T02:59:35.821Z,34.30
2022-12-11T03:02:04.207Z,33.50
2022-12-11T03:04:31.771Z,34.16
2022-12-11T03:07:02.796Z,33.20
2022-12-11T03:09:29.307Z,33.17
2022-12-11T03:11:55.785Z,34.34
2022-12-11T03:14:22.236Z,33.50
2022-12-11T03:17:14.509Z,33.66
2022-12-11T03:19:47.109Z,34.24
2022-12-11T03:22:22.110Z,33.57
2022-12-11T03:25:12.788Z,33.90
2022-12-11T03:27:49.502Z,34.15
2022-12-11T03:30:21.001Z,33.31
2022-12-11T03:32:58.174Z,33.12
2022-12-11T03:35:56.619Z,33.17
2022-12-11T03:38:33.393Z,34.05
2022-12-11T03:41:03.277Z,33.32
2022-12-11T03:43:32.088Z,34.26
2022-12-11T03:46:00.606Z,33.81
2022-12-11T03:48:31.157Z,33.91
2022-12-11T03:50:59.343Z,33.15
2022-12-11T03:53:27.190Z,33.99
2022-12-11T03:55:56.127Z,34.39
2022-12-11T03:58:22.636Z,34.71
2022-12-11T04:00:49.100Z,33.64
2022-12-11T04:03:17.755Z,33.66
2022-12-11T04:05:56.211Z,33.66
2022-12-11T04:08:23.996Z,33.65
2022-12-11T04:11:14.408Z,33.25
2022-12-11T04:13:42.219Z,33.31
2022-12-11T04:16:12.093Z,33.34
2022-12-11T04:18:57.333Z,32.57
2022-12-11T04:21:42.358Z,33.17
2022-12-11T04:24:17.734Z,33.63
2022-12-11T04:26:46.858Z,33.09
2022-12-11T04:29:14.146Z,33.14
2022-12-11T04:31:40.722Z,33.14
2022-12-11T04:34:07.197Z,33.92
2022-12-11T04:36:33.671Z,33.50
2022-12-11T04:39:00.146Z,32.46
2022-12-11T04:41:26.711Z,32.99
2022-12-11T04:43:53.161Z,31.78
2022-12-11T04:46:22.101Z,32.70
2022-12-11T04:48:55.455Z,33.04
2022-12-11T04:51:24.256Z,33.07
2022-12-11T04:53:50.740Z,33.22
2022-12-11T04:56:17.216Z,32.75
2022-12-11T04:58:44.783Z,32.32
2022-12-11T05:01:13.889Z,32.05
2022-12-11T05:03:41.240Z,32.20
2022-12-11T05:06:09.382Z,32.63
2022-12-11T05:08:38.454Z,32.46
2022-12-11T05:11:07.202Z,32.40
2022-12-11T05:13:34.140Z,32.79
2022-12-11T05:16:00.631Z,32.54
2022-12-11T05:18:27.119Z,32.49
2022-12-11T05:21:01.207Z,32.60
2022-12-11T05:23:28.095Z,32.61
2022-12-11T05:25:55.794Z,32.74
2022-12-11T05:28:24.909Z,31.78
2022-12-11T05:31:02.749Z,32.40
2022-12-11T05:33:30.124Z,32.38
2022-12-11T05:35:56.556Z,32.00
2022-12-11T05:38:23.297Z,32.53
2022-12-11T05:41:04.675Z,31.33
2022-12-11T05:43:33.407Z,31.90
2022-12-11T05:46:08.183Z,31.80
2022-12-11T05:48:35.121Z,31.89
2022-12-11T05:51:02.482Z,31.61
2022-12-11T05:53:29.617Z,31.45
2022-12-11T05:56:02.291Z,31.33
2022-12-11T05:58:28.913Z,31.75
2022-12-11T06:00:55.366Z,30.92
2022-12-11T06:03:21.900Z,30.89
2022-12-11T06:05:48.403Z,31.31
2022-12-11T06:08:15.065Z,31.63
2022-12-11T06:10:49.239Z,32.08
2022-12-11T06:13:16.686Z,31.74
2022-12-11T06:15:43.241Z,32.50
2022-12-11T06:18:09.828Z,30.71
2022-12-11T06:20:37.074Z,30.95
2022-12-11T06:23:03.736Z,32.14
2022-12-11T06:25:30.787Z,31.91
2022-12-11T06:27:57.529Z,32.27
2022-12-11T06:30:24.149Z,32.50
2022-12-11T06:33:06.117Z,31.88
2022-12-11T06:35:35.134Z,31.48
2022-12-11T06:38:06.636Z,32.64
2022-12-11T06:40:33.119Z,31.89
2022-12-11T06:42:59.546Z,31.28
2022-12-11T06:45:25.980Z,31.70
2022-12-11T06:47:52.460Z,30.93
2022-12-11T06:50:18.979Z,31.32
2022-12-11T06:52:45.371Z,31.52
2022-12-11T06:55:12.109Z,31.31
2022-12-11T06:57:38.741Z,30.81
2022-12-11T07:00:05.844Z,32.04
2022-12-11T07:02:32.489Z,31.88
2022-12-11T07:04:59.143Z,31.47
2022-12-11T07:07:25.625Z,31.13
2022-12-11T07:09:52.085Z,31.29
2022-12-11T07:12:18.569Z,31.70
2022-12-11T07:14:45.560Z,31.12
2022-12-11T07:17:12.001Z,31.56
2022-12-11T07:19:38.539Z,31.76
2022-12-11T07:22:04.988Z,31.49
2022-12-11T07:24:31.437Z,30.74
2022-12-11T07:26:58.200Z,30.89
2022-12-11T07:29:24.639Z,31.54
2022-12-11T07:31:51.226Z,31.20
2022-12-11T07:34:17.803Z,31.34
2022-12-11T07:36:44.429Z,30.72
2022-12-11T07:39:12.414Z,31.51
2022-12-11T07:41:39.907Z,31.80
2022-12-11T07:44:06.333Z,31.11
2022-12-11T07:46:33.575Z,31.24
2022-12-11T07:49:01.806Z,30.87
2022-12-11T07:51:31.306Z,30.83
2022-12-11T07:54:06.512Z,30.67
2022-12-11T07:56:34.087Z,31.41
2022-12-11T07:59:02.334Z,31.17
2022-12-11T08:01:30.821Z,31.04
2022-12-11T08:03:57.789Z,31.32
2022-12-11T08:06:29.739Z,31.79
2022-12-11T08:09:01.128Z,30.85
2022-12-11T08:11:28.973Z,31.07
2022-12-11T08:13:55.545Z,30.39
2022-12-11T08:16:22.973Z,30.57
2022-12-11T08:18:49.591Z,30.19
2022-12-11T08:21:22.095Z,30.35
2022-12-11T08:23:49.570Z,30.59
2022-12-11T08:26:22.253Z,30.59
2022-12-11T08:28:48.917Z,30.48
2022-12-11T08:31:16.766Z,30.01
2022-12-11T08:33:44.343Z,30.14
2022-12-11T08:36:14.459Z,30.40
2022-12-11T08:38:41.242Z,30.06
2022-12-11T08:41:12.476Z,30.90
2022-12-11T08:43:39.779Z,30.37
2022-12-11T08:46:07.243Z,30.93
2022-12-11T08:48:35.386Z,30.59
2022-12-11T08:51:03.222Z,29.86
2022-12-11T08:53:30.441Z,30.42
2022-12-11T08:56:09.424Z,29.85
2022-12-11T08:58:36.039Z,29.63
2022-12-11T09:01:14.152Z,30.20
2022-12-11T09:03:41.500Z,28.80
2022-12-11T09:06:13.247Z,29.62
2022-12-11T09:08:40.256Z,29.73
2022-12-11T09:11:10.026Z,28.13
2022-12-11T09:13:37.150Z,28.94
2022-12-11T09:16:06.832Z,29.72
2022-12-11T09:18:33.549Z,30.75
2022-12-11T09:21:14.285Z,29.16
2022-12-11T09:23:41.574Z,28.74
2022-12-11T09:26:11.110Z,29.26
2022-12-11T09:28:41.365Z,29.03
2022-12-11T09:31:34.973Z,28.22
2022-12-11T09:36:52.104Z,28.40
2022-12-11T09:39:19.078Z,27.95
2022-12-11T09:42:07.275Z,28.58
2022-12-11T09:44:43.470Z,28.50
2022-12-11T09:47:30.874Z,27.49
2022-12-11T09:50:10.633Z,27.46
2022-12-11T09:53:05.394Z,27.76
2022-12-11T09:55:47.327Z,28.18
2022-12-11T09:58:30.118Z,28.33
2022-12-11T10:01:35.295Z,26.59
2022-12-11T10:04:38.814Z,26.78
2022-12-11T10:07:24.122Z,27.27
2022-12-11T10:10:07.854Z,26.30
2022-12-11T10:12:55.008Z,26.83
2022-12-11T10:15:36.885Z,27.60
2022-12-11T10:18:09.941Z,27.18
2022-12-11T10:20:40.223Z,27.45
2022-12-11T10:23:09.747Z,26.24
2022-12-11T10:25:42.062Z,26.32
2022-12-11T10:28:17.922Z,26.09
2022-12-11T10:31:09.848Z,25.80
2022-12-11T10:33:54.044Z,26.88
2022-12-11T10:36:34.771Z,25.53
2022-12-11T10:39:01.648Z,25.20
2022-12-11T10:41:41.801Z,25.08
2022-12-11T10:44:23.077Z,26.57
2022-12-11T10:47:11.315Z,25.48
2022-12-11T10:49:39.750Z,24.83
2022-12-11T10:52:12.453Z,25.39
2022-12-11T10:54:45.671Z,24.89
2022-12-11T10:57:13.967Z,25.67
2022-12-11T10:59:43.458Z,24.66
2022-12-11T11:02:26.672Z,24.26
2022-12-11T11:04:55.728Z,24.33
2022-12-11T11:07:25.392Z,25.33
2022-12-11T11:10:11.971Z,24.64
2022-12-11T11:12:39.444Z,24.62
2022-12-11T11:15:13.077Z,24.78
2022-12-11T11:17:55.135Z,23.84
2022-12-11T11:20:25.743Z,24.76
2022-12-11T11:22:59.082Z,23.80
2022-12-11T11:25:28.638Z,24.40
2022-12-11T11:27:58.080Z,24.53
2022-12-11T11:30:27.543Z,24.15
2022-12-11T11:33:05.630Z,23.93
2022-12-11T11:35:32.920Z,23.26
2022-12-11T11:38:12.824Z,23.44
2022-12-11T11:41:07.648Z,23.13
2022-12-11T11:43:42.793Z,23.41
2022-12-11T11:46:22.094Z,23.07
2022-12-11T11:48:48.601Z,22.99
2022-12-11T11:51:27.043Z,23.65
2022-12-11T11:53:58.286Z,22.64
2022-12-11T11:56:34.937Z,23.08
2022-12-11T11:59:23.213Z,22.71
2022-12-11T12:01:51.776Z,22.81
2022-12-11T12:04:18.263Z,22.30
2022-12-11T12:06:57.879Z,22.83
2022-12-11T12:09:52.211Z,22.41
2022-12-11T12:12:26.601Z,22.60
2022-12-11T12:14:57.827Z,21.68
2022-12-11T12:17:55.095Z,22.55
2022-12-11T12:20:41.168Z,22.95
2022-12-11T12:23:19.416Z,21.64
2022-12-11T12:25:55.903Z,21.84
2022-12-11T12:28:34.325Z,21.62
2022-12-11T12:31:25.274Z,21.69
2022-12-11T12:34:14.350Z,21.88
2022-12-11T12:36:46.510Z,21.66
2022-12-11T12:39:44.471Z,23.00
2022-12-11T12:42:28.708Z,21.16
2022-12-11T12:45:16.307Z,20.96
2022-12-11T12:47:50.341Z,22.01
2022-12-11T12:50:26.402Z,21.84
2022-12-11T12:52:55.220Z,21.26
2022-12-11T12:55:25.081Z,21.77
2022-12-11T12:57:57.712Z,21.47
2022-12-11T13:00:39.509Z,21.05
2022-12-11T13:03:21.166Z,20.77
2022-12-11T13:06:04.280Z,21.47
2022-12-11T13:08:50.093Z,21.19
2022-12-11T13:11:19.864Z,21.33
2022-12-11T13:14:02.528Z,22.08
2022-12-11T13:16:41.440Z,20.13
2022-12-11T13:19:25.996Z,21.83
2022-12-11T13:22:18.819Z,21.82
2022-12-11T13:24:52.125Z,20.78
2022-12-11T13:27:38.644Z,20.48
2022-12-11T13:30:21.218Z,21.30
2022-12-11T13:33:14.107Z,20.52
2022-12-11T13:35:40.737Z,21.80
2022-12-11T13:38:16.955Z,20.84
2022-12-11T13:40:45.364Z,21.42
2022-12-11T13:43:20.221Z,20.76
2022-12-11T13:45:56.068Z,21.04
2022-12-11T13:48:47.716Z,21.47
2022-12-11T13:51:21.824Z,21.13
2022-12-11T13:53:48.662Z,20.88
2022-12-11T13:56:22.505Z,20.43
2022-12-11T13:58:49.248Z,21.04
2022-12-11T14:01:17.670Z,22.12
2022-12-11T14:04:09.508Z,21.44
2022-12-11T14:06:38.894Z,20.73
2022-12-11T14:09:06.710Z,21.28
2022-12-11T14:11:40.158Z,21.62
2022-12-11T14:14:16.134Z,21.41
2022-12-11T14:16:42.671Z,21.09
2022-12-11T14:19:10.916Z,20.66
2022-12-11T14:21:37.412Z,20.58
2022-12-11T14:24:06.487Z,21.32
2022-12-11T14:26:37.790Z,21.84
2022-12-11T14:29:05.388Z,22.28
2022-12-11T14:31:39.588Z,21.49
2022-12-11T14:34:11.981Z,20.83
2022-12-11T14:36:41.231Z,21.54
2022-12-11T14:39:18.597Z,21.53
2022-12-11T14:42:09.012Z,19.95
2022-12-11T14:44:48.710Z,20.67
2022-12-11T14:47:42.647Z,20.64
2022-12-11T14:50:21.171Z,22.14
2022-12-11T14:52:55.491Z,20.66
2022-12-11T14:55:32.739Z,20.94
2022-12-11T14:58:02.852Z,21.13
2022-12-11T15:00:31.183Z,19.82
2022-12-11T15:03:03.879Z,20.56
2022-12-11T15:05:37.153Z,20.69
2022-12-11T15:08:09.910Z,20.35
2022-12-11T15:10:41.083Z,22.69
2022-12-11T15:13:09.283Z,25.32
2022-12-11T15:15:46.215Z,25.73
2022-12-11T15:18:24.851Z,23.34
2022-12-11T15:20:58.673Z,24.24
2022-12-11T15:23:25.760Z,26.18
2022-12-11T15:25:55.600Z,22.97
2022-12-11T15:28:32.181Z,21.68
2022-12-11T15:31:05.113Z,22.91
2022-12-11T15:33:34.528Z,22.33
2022-12-11T15:36:05.907Z,21.00
2022-12-11T15:38:35.680Z,22.68
2022-12-11T15:41:02.828Z,22.91
2022-12-11T15:43:33.800Z,22.58
2022-12-11T15:46:02.605Z,22.72
2022-12-11T15:48:29.184Z,22.85
2022-12-11T15:50:55.880Z,21.45
2022-12-11T15:53:22.585Z,20.70
2022-12-11T15:55:49.404Z,20.97
2022-12-11T15:58:19.535Z,21.69
2022-12-11T16:00:46.046Z,22.58
2022-12-11T16:03:14.550Z,22.53
2022-12-11T16:05:42.565Z,23.05
2022-12-11T16:08:15.078Z,22.05
2022-12-11T16:10:43.296Z,20.45
2022-12-11T16:13:10.652Z,20.20
2022-12-11T16:15:44.546Z,19.64
2022-12-11T16:18:13.543Z,19.67
2022-12-11T16:20:41.056Z,20.02
2022-12-11T16:23:07.814Z,19.95
2022-12-11T16:25:34.372Z,20.98
2022-12-11T16:28:01.626Z,20.53
2022-12-11T16:30:29.423Z,19.65
2022-12-11T16:32:56.255Z,20.15
2022-12-11T16:35:22.809Z,20.20
2022-12-11T16:37:53.912Z,21.09
2022-12-11T16:40:21.399Z,21.78
2022-12-11T16:42:49.278Z,21.74
2022-12-11T16:45:22.058Z,21.33
2022-12-11T16:47:49.449Z,21.44
2022-12-11T16:50:17.450Z,23.06
2022-12-11T16:52:44.450Z,22.59
2022-12-11T16:55:13.179Z,22.23
2022-12-11T16:57:40.579Z,22.18
2022-12-11T17:00:09.284Z,22.90
2022-12-11T17:02:36.540Z,23.87
2022-12-11T17:05:03.324Z,21.55
2022-12-11T17:07:31.704Z,22.34
2022-12-11T17:09:58.231Z,22.82
2022-12-11T17:12:27.673Z,22.55
2022-12-11T17:14:55.971Z,22.76
2022-12-11T17:17:22.463Z,21.90
2022-12-11T17:19:49.398Z,20.65
2022-12-11T17:22:15.866Z,21.68
2022-12-11T17:24:42.365Z,22.11
2022-12-11T17:27:08.910Z,21.17
2022-12-11T17:29:35.424Z,21.26
2022-12-11T17:32:03.293Z,21.95
2022-12-11T17:34:36.136Z,21.44
2022-12-11T17:37:04.733Z,21.06
2022-12-11T17:39:31.361Z,21.86
2022-12-11T17:41:57.890Z,20.14
2022-12-11T17:44:26.514Z,21.18
2022-12-11T17:46:53.252Z,21.23
2022-12-11T17:49:19.904Z,22.21
2022-12-11T17:51:46.501Z,20.77
2022-12-11T17:54:13.006Z,20.70
2022-12-11T17:56:40.493Z,22.18
2022-12-11T17:59:07.143Z,21.62
2022-12-11T18:01:33.885Z,21.63
2022-12-11T18:04:01.798Z,20.62
2022-12-11T18:06:29.284Z,20.83
2022-12-11T18:08:56.288Z,20.66
2022-12-11T18:11:23.871Z,20.39
2022-12-11T18:13:51.831Z,20.16
2022-12-11T18:16:25.883Z,20.77
2022-12-11T18:18:52.959Z,20.77
2022-12-11T18:21:25.479Z,21.10
2022-12-11T18:23:52.411Z,21.10
2022-12-11T18:26:19.827Z,20.34
2022-12-11T18:28:47.734Z,19.90
2022-12-11T18:31:14.426Z,20.55
2022-12-11T18:33:43.201Z,20.55
2022-12-11T18:36:10.150Z,20.83
2022-12-11T18:38:36.570Z,19.83
2022-12-11T18:41:04.428Z,19.77
2022-12-11T18:43:30.827Z,19.46
2022-12-11T18:45:57.353Z,20.34
2022-12-11T18:48:23.825Z,19.00
2022-12-11T18:50:51.439Z,19.59
2022-12-11T18:53:18.813Z,19.91
2022-12-11T18:55:47.219Z,19.80
2022-12-11T18:58:15.905Z,20.03
2022-12-11T19:00:43.502Z,20.08
2022-12-11T19:03:11.947Z,20.92
2022-12-11T19:05:42.262Z,21.57
2022-12-11T19:08:09.889Z,20.62
2022-12-11T19:10:42.620Z,19.62
2022-12-11T19:13:09.194Z,22.17
2022-12-11T19:15:39.578Z,21.30
2022-12-11T19:18:06.432Z,21.03
2022-12-11T19:21:03.160Z,21.16
2022-12-11T19:23:25.735Z,22.17
2022-12-11T19:25:52.266Z,20.96
2022-12-11T19:28:18.887Z,21.26
2022-12-11T19:30:47.422Z,22.40
2022-12-11T19:33:15.129Z,21.19
2022-12-11T19:35:42.643Z,20.96
2022-12-11T19:38:09.479Z,22.03
2022-12-11T19:40:44.279Z,22.62
2022-12-11T19:43:13.955Z,21.44
2022-12-11T19:45:43.459Z,22.65
2022-12-11T19:48:22.813Z,22.98
2022-12-11T19:50:56.628Z,23.63
2022-12-11T19:56:46.230Z,24.60
2022-12-11T19:59:32.735Z,24.34
2022-12-11T20:02:55.254Z,23.28
2022-12-11T20:07:02.381Z,23.62
2022-12-11T20:10:01.769Z,25.56
2022-12-11T20:13:32.421Z,24.06
2022-12-11T20:16:33.314Z,23.39
2022-12-11T20:19:23.449Z,22.49
2022-12-11T20:23:07.813Z,21.47
2022-12-11T20:25:34.480Z,23.73
2022-12-11T20:28:01.083Z,21.84
2022-12-11T20:30:31.683Z,22.85
2022-12-11T20:32:58.539Z,24.17
2022-12-11T20:35:58.430Z,23.84
2022-12-11T20:38:15.351Z,21.97
2022-12-11T20:40:46.331Z,21.54
2022-12-11T20:43:13.029Z,23.56
2022-12-11T20:45:42.009Z,24.36
2022-12-11T20:48:10.915Z,24.24
2022-12-11T20:51:03.185Z,21.93
2022-12-11T20:54:37.639Z,20.72
2022-12-11T20:57:55.117Z,20.64
2022-12-11T21:03:34.509Z,21.30
2022-12-11T21:06:04.349Z,21.78
2022-12-11T21:08:31.101Z,21.61
2022-12-11T21:10:57.730Z,20.80
2022-12-11T21:13:24.503Z,21.29
2022-12-11T21:16:05.967Z,21.67
2022-12-11T21:18:52.962Z,21.18
2022-12-11T21:24:03.592Z,21.70
2022-12-11T21:26:30.087Z,20.18
2022-12-11T21:28:59.017Z,21.19
2022-12-11T21:31:43.610Z,21.50
2022-12-11T21:34:23.567Z,21.13
2022-12-11T21:36:57.330Z,20.56
2022-12-11T21:39:25.648Z,21.55
2022-12-11T21:41:52.518Z,21.68
2022-12-11T21:47:10.259Z,20.77
2022-12-11T21:49:37.539Z,21.44
2022-12-11T21:52:04.693Z,21.04
2022-12-11T21:54:31.398Z,21.24
2022-12-11T21:56:58.242Z,20.52
2022-12-11T21:59:24.881Z,21.55
2022-12-11T22:01:51.481Z,23.09
2022-12-11T22:07:20.185Z,22.81
2022-12-11T22:09:46.671Z,23.83
2022-12-11T22:12:22.654Z,25.29
2022-12-11T22:14:49.465Z,24.91
2022-12-11T22:17:18.074Z,25.29
2022-12-11T22:19:45.395Z,25.06
2022-12-11T22:22:13.523Z,25.04
2022-12-11T22:24:41.037Z,25.59
2022-12-11T22:27:07.552Z,25.95
2022-12-11T22:29:34.812Z,26.11
2022-12-11T22:32:01.709Z,25.84
2022-12-11T22:34:28.164Z,26.33
2022-12-11T22:36:54.695Z,25.29
2022-12-11T22:39:21.132Z,26.69
2022-12-11T22:41:47.579Z,26.07
2022-12-11T22:44:16.478Z,27.00
2022-12-11T22:46:46.827Z,28.21
2022-12-11T22:49:16.448Z,27.89
2022-12-11T22:51:42.995Z,27.04
2022-12-11T22:54:09.596Z,26.07
2022-12-11T22:56:36.164Z,27.03
2022-12-11T22:59:02.713Z,28.84
2022-12-11T23:01:29.315Z,29.58
2022-12-11T23:03:55.847Z,26.77
2022-12-11T23:06:24.738Z,27.90
2022-12-11T23:08:52.585Z,30.04
2022-12-11T23:11:28.162Z,30.04
2022-12-11T23:13:55.520Z,29.61
2022-12-11T23:16:23.809Z,31.68
2022-12-11T23:18:50.701Z,33.02
2022-12-11T23:21:17.190Z,34.63
2022-12-11T23:23:43.782Z,31.99
2022-12-11T23:26:12.945Z,31.85
2022-12-11T23:28:40.502Z,32.09
2022-12-11T23:31:08.178Z,32.12
2022-12-11T23:33:34.792Z,33.33
2022-12-11T23:36:01.299Z,31.75
2022-12-11T23:38:27.792Z,34.59
2022-12-11T23:40:55.164Z,33.43
2022-12-11T23:43:22.259Z,33.25
2022-12-11T23:45:48.924Z,33.70
2022-12-11T23:48:15.555Z,35.64
2022-12-11T23:50:43.770Z,35.29
2022-12-11T23:53:10.841Z,33.09
2022-12-11T23:55:42.437Z,36.11
2022-12-11T23:58:10.575Z,37.06
